MMLP/LAP METAR and TAF weather

Enter ICAO airport designator
Station Type Date Time Source
MMLP METAR 2018/12/13 22:41 UTC NOAA

MMLP 132241Z 02010KT 10SM SCT040 BKN200 23/12 A3004 RMK 8/108


Station Type Date Time Source
MMLP Decoded METAR 2018/12/13 22:41 UTC NOAA

La Paz International Airport, Mexico (MMLP) 24-04N 110-22W
Dec 13, 2018 - 05:41 PM EST / 2018.12.13 2241 UTC
Wind: from the NNE (020 degrees) at 12 MPH (10 KT):0
Visibility: 10 mile(s):0
Sky conditions: mostly cloudy
Temperature: 73 F (23 C)
Dew Point: 53 F (12 C)
Relative Humidity: 49%
Pressure (altimeter): 30.04 in. Hg (1017 hPa)
ob: MMLP 132241Z 02010KT 10SM SCT040 BKN200 23/12 A3004 RMK 8/108
cycle: 22

Station Type Date Time Source
MMLP TAF 2018/12/13 18:48 UTC NOAA

TAF MMLP 131646Z 1318/1418 04020KT P6SM SCT040 BKN250
FM140400 35015KT P6SM SKC
FM141600 04020KT P6SM BKN250


Example: see airport list